Time;durP1;ratioP1;P1;durP2;ratioP2;P2;SDS_P1;SDS_P2;PMS_P1;PMS_P2;Temp;Humidity;BMP_temperature;BMP_pressure;BME280_temperature;BME280_humidity;BME280_pressure;Samples;Min_cycle;Max_cycle;Signal;HPM_P1;HPM_P2
2023/09/28 00:01:16;;;;;;;0.70;0.70;;;;;;;;;;5115945;28;20529;-63
2023/09/28 00:03:42;;;;;;;0.70;0.70;;;;;;;;;;5115476;28;20522;-63
2023/09/28 00:06:10;;;;;;;0.80;0.80;;;;;;;;;;5115980;28;20782;-62
2023/09/28 00:08:37;;;;;;;1.20;1.10;;;;;;;;;;5115809;28;20437;-61
2023/09/28 00:11:04;;;;;;;0.70;0.70;;;;;;;;;;5116062;28;20525;-61
2023/09/28 00:13:31;;;;;;;0.70;0.70;;;;;;;;;;5115331;28;20450;-62
2023/09/28 00:15:59;;;;;;;0.70;0.70;;;;;;;;;;5115469;28;20437;-61
2023/09/28 00:18:27;;;;;;;0.70;0.70;;;;;;;;;;5115572;28;20438;-61
2023/09/28 00:20:53;;;;;;;0.70;0.70;;;;;;;;;;5115288;28;20542;-62
2023/09/28 00:23:20;;;;;;;0.90;0.90;;;;;;;;;;5115637;28;20450;-62
2023/09/28 00:25:47;;;;;;;0.70;0.70;;;;;;;;;;5115612;28;20473;-62
2023/09/28 00:28:14;;;;;;;0.87;0.87;;;;;;;;;;5115538;28;20432;-62
2023/09/28 00:30:42;;;;;;;0.70;0.70;;;;;;;;;;5115546;28;20939;-62
2023/09/28 00:33:10;;;;;;;0.80;0.80;;;;;;;;;;5115376;28;20454;-62
2023/09/28 00:35:37;;;;;;;0.70;0.70;;;;;;;;;;5115398;28;20483;-62
2023/09/28 00:38:05;;;;;;;0.70;0.70;;;;;;;;;;5115124;28;20529;-62
2023/09/28 00:40:31;;;;;;;0.70;0.70;;;;;;;;;;5114789;28;20466;-62
2023/09/28 00:42:59;;;;;;;0.70;0.70;;;;;;;;;;5115538;28;20776;-62
2023/09/28 00:45:26;;;;;;;0.70;0.70;;;;;;;;;;5115170;28;20843;-62
2023/09/28 00:47:55;;;;;;;0.77;0.77;;;;;;;;;;5115615;28;20794;-62
2023/09/28 00:50:22;;;;;;;0.70;0.70;;;;;;;;;;5114987;28;20453;-62
2023/09/28 00:52:51;;;;;;;0.70;0.70;;;;;;;;;;5114789;28;20491;-61
2023/09/28 00:55:19;;;;;;;0.70;0.70;;;;;;;;;;5114845;28;20853;-61
2023/09/28 00:57:47;;;;;;;0.70;0.70;;;;;;;;;;5114663;28;20445;-61
2023/09/28 01:00:24;;;;;;;0.70;0.70;;;;;;;;;;5114320;28;20948;-61
2023/09/28 01:02:50;;;;;;;0.70;0.70;;;;;;;;;;5114336;28;20429;-61
2023/09/28 01:05:18;;;;;;;0.70;0.70;;;;;;;;;;5114317;28;20821;-62
2023/09/28 01:07:45;;;;;;;0.70;0.70;;;;;;;;;;5114931;28;20473;-61
2023/09/28 01:10:14;;;;;;;0.70;0.70;;;;;;;;;;5114598;28;20443;-61
2023/09/28 01:12:41;;;;;;;0.70;0.70;;;;;;;;;;5114743;28;20548;-61
2023/09/28 01:15:10;;;;;;;0.70;0.70;;;;;;;;;;5114241;28;20453;-62
2023/09/28 01:17:36;;;;;;;0.70;0.70;;;;;;;;;;5114665;28;20436;-62
2023/09/28 01:20:08;;;;;;;0.70;0.70;;;;;;;;;;5114023;28;20447;-61
2023/09/28 01:22:36;;;;;;;0.70;0.70;;;;;;;;;;5114674;28;20448;-61
2023/09/28 01:25:04;;;;;;;0.70;0.70;;;;;;;;;;5114368;28;20500;-61
2023/09/28 01:27:31;;;;;;;0.70;0.70;;;;;;;;;;5113986;28;20442;-62
2023/09/28 01:29:58;;;;;;;0.70;0.70;;;;;;;;;;5114182;28;20445;-62
2023/09/28 01:32:25;;;;;;;0.70;0.70;;;;;;;;;;5114278;28;20526;-62
2023/09/28 01:34:52;;;;;;;0.70;0.70;;;;;;;;;;5114370;28;20568;-62
2023/09/28 01:37:20;;;;;;;0.70;0.70;;;;;;;;;;5114630;28;20473;-61
2023/09/28 01:39:48;;;;;;;0.70;0.70;;;;;;;;;;5114169;28;20579;-62
2023/09/28 01:42:14;;;;;;;0.70;0.70;;;;;;;;;;5114020;28;20470;-62
2023/09/28 01:44:42;;;;;;;0.70;0.70;;;;;;;;;;5113199;28;20446;-65
2023/09/28 01:47:08;;;;;;;0.70;0.70;;;;;;;;;;5114625;28;20453;-62
2023/09/28 01:49:35;;;;;;;1.43;1.33;;;;;;;;;;5113582;28;20439;-62
2023/09/28 01:52:01;;;;;;;0.70;0.70;;;;;;;;;;5113856;28;20531;-61
2023/09/28 01:54:28;;;;;;;0.70;0.70;;;;;;;;;;5113839;28;20460;-62
2023/09/28 01:56:56;;;;;;;0.80;0.80;;;;;;;;;;5113462;28;20947;-61
2023/09/28 01:59:23;;;;;;;0.70;0.70;;;;;;;;;;5113637;28;20442;-62
2023/09/28 02:01:50;;;;;;;0.70;0.70;;;;;;;;;;5113995;28;20552;-61
2023/09/28 02:04:17;;;;;;;0.70;0.70;;;;;;;;;;5113690;28;20439;-62
2023/09/28 02:06:44;;;;;;;0.70;0.70;;;;;;;;;;5113729;28;20439;-61
2023/09/28 02:09:11;;;;;;;0.70;0.70;;;;;;;;;;5113676;28;20465;-62
2023/09/28 02:11:43;;;;;;;0.70;0.70;;;;;;;;;;5113526;28;20816;-61
2023/09/28 02:14:11;;;;;;;0.70;0.70;;;;;;;;;;5113347;28;20521;-61
2023/09/28 02:16:38;;;;;;;0.70;0.70;;;;;;;;;;5113482;28;20437;-61
2023/09/28 02:19:05;;;;;;;0.70;0.70;;;;;;;;;;5113179;28;20441;-61
2023/09/28 02:21:32;;;;;;;0.80;0.80;;;;;;;;;;5113030;28;20513;-61
2023/09/28 02:23:58;;;;;;;0.70;0.70;;;;;;;;;;5113438;28;20877;-61
2023/09/28 02:26:26;;;;;;;0.70;0.70;;;;;;;;;;5113036;28;20427;-61
2023/09/28 02:28:53;;;;;;;0.80;0.80;;;;;;;;;;5113035;28;20446;-61
2023/09/28 02:31:20;;;;;;;0.70;0.70;;;;;;;;;;5112917;28;20437;-61
2023/09/28 02:33:48;;;;;;;0.80;0.80;;;;;;;;;;5112842;28;20450;-61
2023/09/28 02:36:15;;;;;;;0.70;0.70;;;;;;;;;;5113124;28;20460;-62
2023/09/28 02:38:42;;;;;;;0.70;0.70;;;;;;;;;;5113312;28;20506;-63
2023/09/28 02:41:15;;;;;;;0.70;0.70;;;;;;;;;;5113173;28;20470;-62
2023/09/28 02:43:42;;;;;;;0.70;0.70;;;;;;;;;;5113101;28;20941;-62
2023/09/28 02:46:08;;;;;;;0.70;0.70;;;;;;;;;;5113203;28;20433;-62
2023/09/28 02:48:37;;;;;;;0.70;0.70;;;;;;;;;;5112919;28;20439;-62
2023/09/28 02:51:03;;;;;;;0.80;0.80;;;;;;;;;;5112828;28;20543;-62
2023/09/28 02:53:31;;;;;;;0.70;0.70;;;;;;;;;;5112936;28;20450;-62
2023/09/28 02:55:57;;;;;;;0.70;0.70;;;;;;;;;;5115792;28;20532;-62
2023/09/28 02:58:24;;;;;;;0.77;0.77;;;;;;;;;;5117332;28;20527;-62
2023/09/28 03:00:51;;;;;;;0.73;0.73;;;;;;;;;;5117085;28;20517;-62
2023/09/28 03:03:18;;;;;;;0.70;0.70;;;;;;;;;;5117195;28;20578;-62
2023/09/28 03:05:46;;;;;;;0.70;0.70;;;;;;;;;;5116790;28;20442;-62
2023/09/28 03:08:14;;;;;;;0.70;0.70;;;;;;;;;;5116795;28;20521;-62
2023/09/28 03:10:41;;;;;;;0.70;0.70;;;;;;;;;;5116878;28;20501;-62
2023/09/28 03:13:08;;;;;;;0.73;0.73;;;;;;;;;;5116623;28;20931;-62
2023/09/28 03:15:35;;;;;;;0.80;0.80;;;;;;;;;;5116927;28;20798;-62
2023/09/28 03:18:03;;;;;;;0.80;0.80;;;;;;;;;;5116554;28;20998;-62
2023/09/28 03:20:30;;;;;;;0.80;0.80;;;;;;;;;;5116378;28;20445;-62
2023/09/28 03:22:58;;;;;;;0.70;0.70;;;;;;;;;;5116787;28;20519;-62
2023/09/28 03:25:25;;;;;;;0.80;0.80;;;;;;;;;;5116933;28;20568;-62
2023/09/28 03:27:52;;;;;;;0.70;0.70;;;;;;;;;;5116680;28;20438;-62
2023/09/28 03:30:20;;;;;;;0.70;0.70;;;;;;;;;;5116678;28;20449;-62
2023/09/28 03:32:47;;;;;;;0.70;0.70;;;;;;;;;;5116662;28;20782;-62
2023/09/28 03:35:16;;;;;;;0.80;0.80;;;;;;;;;;5116637;28;20441;-62
2023/09/28 03:37:43;;;;;;;0.80;0.80;;;;;;;;;;5116454;28;20442;-62
2023/09/28 03:40:12;;;;;;;4.30;1.20;;;;;;;;;;5116546;28;20466;-62
2023/09/28 03:42:40;;;;;;;0.80;0.80;;;;;;;;;;5115986;28;20832;-62
2023/09/28 03:45:09;;;;;;;0.70;0.70;;;;;;;;;;5116428;28;20496;-62
2023/09/28 03:47:36;;;;;;;0.80;0.80;;;;;;;;;;5116685;28;20434;-62
2023/09/28 03:50:04;;;;;;;0.80;0.80;;;;;;;;;;5115946;28;20527;-62
2023/09/28 03:52:31;;;;;;;0.80;0.80;;;;;;;;;;5097904;28;20931;-63
2023/09/28 03:54:59;;;;;;;0.80;0.80;;;;;;;;;;5094816;28;20992;-62
2023/09/28 03:57:27;;;;;;;0.70;0.70;;;;;;;;;;5094807;28;20510;-62
2023/09/28 03:59:55;;;;;;;0.70;0.70;;;;;;;;;;5095323;28;20532;-62
2023/09/28 04:02:22;;;;;;;0.80;0.80;;;;;;;;;;5095001;28;20885;-63
2023/09/28 04:04:49;;;;;;;0.70;0.70;;;;;;;;;;5095372;28;20488;-62
2023/09/28 04:07:16;;;;;;;0.80;0.80;;;;;;;;;;5094146;28;20526;-63
2023/09/28 04:09:44;;;;;;;0.70;0.70;;;;;;;;;;5095246;28;20450;-62
2023/09/28 04:12:11;;;;;;;0.70;0.70;;;;;;;;;;5094537;28;20541;-62
2023/09/28 04:14:40;;;;;;;0.70;0.70;;;;;;;;;;5095254;28;20442;-62
2023/09/28 04:17:07;;;;;;;0.80;0.80;;;;;;;;;;5094400;28;20430;-62
2023/09/28 04:19:34;;;;;;;0.80;0.80;;;;;;;;;;5094403;28;20776;-62
2023/09/28 04:22:02;;;;;;;0.70;0.70;;;;;;;;;;5093859;28;20563;-63
2023/09/28 04:24:29;;;;;;;0.80;0.80;;;;;;;;;;5099531;28;20506;-63
2023/09/28 04:26:58;;;;;;;0.80;0.80;;;;;;;;;;5114855;28;20438;-62
2023/09/28 04:29:25;;;;;;;0.70;0.70;;;;;;;;;;5114791;28;20541;-62
2023/09/28 04:31:54;;;;;;;0.70;0.70;;;;;;;;;;5115012;28;20447;-62
2023/09/28 04:34:21;;;;;;;0.80;0.80;;;;;;;;;;5114386;28;20928;-62
2023/09/28 04:36:50;;;;;;;0.70;0.70;;;;;;;;;;5114722;28;20519;-62
2023/09/28 04:39:17;;;;;;;0.70;0.70;;;;;;;;;;5114862;28;20515;-69
2023/09/28 04:41:45;;;;;;;0.70;0.70;;;;;;;;;;5114593;28;20474;-62
2023/09/28 04:44:11;;;;;;;0.70;0.70;;;;;;;;;;5114586;28;20525;-62
2023/09/28 04:46:38;;;;;;;0.80;0.80;;;;;;;;;;5114532;28;20485;-62
2023/09/28 04:49:07;;;;;;;0.70;0.70;;;;;;;;;;5115344;28;20802;-62
2023/09/28 04:51:35;;;;;;;0.80;0.80;;;;;;;;;;5114798;28;20456;-62
2023/09/28 04:54:02;;;;;;;0.80;0.80;;;;;;;;;;5114907;28;20935;-62
2023/09/28 04:56:30;;;;;;;0.80;0.80;;;;;;;;;;5114724;28;20430;-62
2023/09/28 04:58:58;;;;;;;0.80;0.80;;;;;;;;;;5114910;28;20439;-62
2023/09/28 05:01:25;;;;;;;0.80;0.80;;;;;;;;;;5114428;28;20484;-62
2023/09/28 05:03:53;;;;;;;0.80;0.80;;;;;;;;;;5113654;28;20533;-62
2023/09/28 05:06:21;;;;;;;0.80;0.80;;;;;;;;;;5114929;28;20444;-62
2023/09/28 05:08:49;;;;;;;1.63;1.53;;;;;;;;;;5114256;28;20446;-62
2023/09/28 05:11:16;;;;;;;0.80;0.80;;;;;;;;;;5114984;28;20449;-62
2023/09/28 05:13:44;;;;;;;0.80;0.80;;;;;;;;;;5114294;28;20450;-62
2023/09/28 05:16:11;;;;;;;0.80;0.80;;;;;;;;;;5114585;28;20856;-62
2023/09/28 05:18:38;;;;;;;0.80;0.80;;;;;;;;;;5113206;28;20526;-62
2023/09/28 05:21:06;;;;;;;0.80;0.80;;;;;;;;;;5114125;28;20839;-62
2023/09/28 05:23:34;;;;;;;0.80;0.80;;;;;;;;;;5113620;28;20823;-62
2023/09/28 05:26:02;;;;;;;0.70;0.70;;;;;;;;;;5114138;28;20563;-62
2023/09/28 05:28:29;;;;;;;0.73;0.73;;;;;;;;;;5114052;28;20474;-62
2023/09/28 05:30:56;;;;;;;0.70;0.70;;;;;;;;;;5114148;28;20439;-62
2023/09/28 05:33:23;;;;;;;0.80;0.80;;;;;;;;;;5114356;28;20434;-62
2023/09/28 05:35:50;;;;;;;0.80;0.80;;;;;;;;;;5113903;28;20476;-62
2023/09/28 05:38:17;;;;;;;0.80;0.80;;;;;;;;;;5114062;28;20756;-62
2023/09/28 05:40:46;;;;;;;0.80;0.80;;;;;;;;;;5114921;28;20450;-62
2023/09/28 05:43:13;;;;;;;0.80;0.80;;;;;;;;;;5113652;28;20537;-62
2023/09/28 05:45:40;;;;;;;0.70;0.70;;;;;;;;;;5113713;28;20521;-62
2023/09/28 05:48:08;;;;;;;0.80;0.80;;;;;;;;;;5113945;28;20800;-62
2023/09/28 05:50:35;;;;;;;0.70;0.70;;;;;;;;;;5113583;28;20528;-62
2023/09/28 05:53:02;;;;;;;0.80;0.80;;;;;;;;;;5113736;28;20537;-62
2023/09/28 05:55:29;;;;;;;0.80;0.80;;;;;;;;;;5114087;28;20520;-62
2023/09/28 05:57:58;;;;;;;0.80;0.80;;;;;;;;;;5113464;28;20433;-62
2023/09/28 06:00:25;;;;;;;0.70;0.70;;;;;;;;;;5113955;28;20448;-62
2023/09/28 06:02:52;;;;;;;0.80;0.80;;;;;;;;;;5113287;28;20481;-62
2023/09/28 06:05:19;;;;;;;0.80;0.80;;;;;;;;;;5113971;28;20518;-62
2023/09/28 06:07:47;;;;;;;0.80;0.80;;;;;;;;;;5113240;28;20483;-62
2023/09/28 06:10:14;;;;;;;0.70;0.70;;;;;;;;;;5113727;28;20444;-62
2023/09/28 06:12:41;;;;;;;0.80;0.80;;;;;;;;;;5113834;28;20442;-62
2023/09/28 06:15:10;;;;;;;0.70;0.70;;;;;;;;;;5113271;28;20939;-62
2023/09/28 06:17:37;;;;;;;0.90;0.90;;;;;;;;;;5113072;28;20532;-62
2023/09/28 06:20:06;;;;;;;0.70;0.70;;;;;;;;;;5113165;28;21014;-62
2023/09/28 06:22:33;;;;;;;0.70;0.70;;;;;;;;;;5114037;28;20515;-62
2023/09/28 06:25:00;;;;;;;0.70;0.70;;;;;;;;;;5112976;28;20470;-62
2023/09/28 06:27:28;;;;;;;0.70;0.70;;;;;;;;;;5113165;28;20444;-62
2023/09/28 06:29:56;;;;;;;0.80;0.80;;;;;;;;;;5112643;28;20475;-62
2023/09/28 06:32:24;;;;;;;0.70;0.70;;;;;;;;;;5112991;28;20462;-62
2023/09/28 06:34:52;;;;;;;0.70;0.70;;;;;;;;;;5113287;28;20438;-62
2023/09/28 06:37:19;;;;;;;0.80;0.80;;;;;;;;;;5113340;28;20433;-62
2023/09/28 06:39:46;;;;;;;0.70;0.70;;;;;;;;;;5113467;28;20432;-62
2023/09/28 06:42:13;;;;;;;0.83;0.83;;;;;;;;;;5112860;28;21061;-62
2023/09/28 06:44:40;;;;;;;0.80;0.80;;;;;;;;;;5113138;28;20437;-62
2023/09/28 06:47:08;;;;;;;0.70;0.70;;;;;;;;;;5113235;28;21027;-62
2023/09/28 06:49:36;;;;;;;0.70;0.70;;;;;;;;;;5113262;28;20774;-63
2023/09/28 06:52:03;;;;;;;0.70;0.70;;;;;;;;;;5113248;28;20460;-62
2023/09/28 06:54:32;;;;;;;0.70;0.70;;;;;;;;;;5112686;28;20448;-62
2023/09/28 06:57:00;;;;;;;0.70;0.70;;;;;;;;;;5112871;28;20962;-62
2023/09/28 06:59:28;;;;;;;0.80;0.80;;;;;;;;;;5112750;28;20442;-62
2023/09/28 07:01:55;;;;;;;0.70;0.70;;;;;;;;;;5113027;28;20474;-62
2023/09/28 07:04:23;;;;;;;0.70;0.70;;;;;;;;;;5112611;28;20932;-61
2023/09/28 07:06:51;;;;;;;0.70;0.70;;;;;;;;;;5112984;28;20799;-61
2023/09/28 07:09:18;;;;;;;0.70;0.70;;;;;;;;;;5112842;28;20983;-61
2023/09/28 07:11:46;;;;;;;0.80;0.80;;;;;;;;;;5113137;28;20883;-61
2023/09/28 07:14:13;;;;;;;0.80;0.80;;;;;;;;;;5113068;28;20445;-61
2023/09/28 07:16:40;;;;;;;0.70;0.70;;;;;;;;;;5112928;28;20915;-61
2023/09/28 07:19:07;;;;;;;0.70;0.70;;;;;;;;;;5112861;28;20797;-61
2023/09/28 07:21:36;;;;;;;0.70;0.70;;;;;;;;;;5112839;28;20513;-62
2023/09/28 07:24:04;;;;;;;0.80;0.80;;;;;;;;;;5112488;28;20442;-61
2023/09/28 07:26:32;;;;;;;0.70;0.70;;;;;;;;;;5113049;28;20501;-61
2023/09/28 07:29:00;;;;;;;0.70;0.70;;;;;;;;;;5112748;28;20449;-61
2023/09/28 07:31:27;;;;;;;0.70;0.70;;;;;;;;;;5112539;28;20437;-62
2023/09/28 07:33:54;;;;;;;0.70;0.70;;;;;;;;;;5112708;28;20446;-61
2023/09/28 07:36:22;;;;;;;0.70;0.70;;;;;;;;;;5112478;28;20445;-61
2023/09/28 07:38:50;;;;;;;0.70;0.70;;;;;;;;;;5112365;28;20956;-62
2023/09/28 07:41:18;;;;;;;0.70;0.70;;;;;;;;;;5112560;28;20454;-61
2023/09/28 07:43:45;;;;;;;0.70;0.70;;;;;;;;;;5116229;28;20569;-62
2023/09/28 07:46:13;;;;;;;0.70;0.70;;;;;;;;;;5116242;28;20441;-64
2023/09/28 07:48:40;;;;;;;0.70;0.70;;;;;;;;;;5116276;28;20442;-62
2023/09/28 07:51:08;;;;;;;0.70;0.70;;;;;;;;;;5116455;28;20449;-62
2023/09/28 07:53:36;;;;;;;0.70;0.70;;;;;;;;;;5116304;28;20442;-61
2023/09/28 07:56:03;;;;;;;0.70;0.70;;;;;;;;;;5116050;28;20442;-62
2023/09/28 07:58:31;;;;;;;0.80;0.80;;;;;;;;;;5116135;28;20526;-62
2023/09/28 08:00:59;;;;;;;0.70;0.70;;;;;;;;;;5115762;28;20871;-63
2023/09/28 08:03:26;;;;;;;0.70;0.70;;;;;;;;;;5115933;28;20470;-62
2023/09/28 08:05:54;;;;;;;0.70;0.70;;;;;;;;;;5115790;28;20836;-61
2023/09/28 08:08:21;;;;;;;0.70;0.70;;;;;;;;;;5115514;28;20524;-61
2023/09/28 08:10:48;;;;;;;0.70;0.70;;;;;;;;;;5115574;28;20438;-62
2023/09/28 08:13:16;;;;;;;0.70;0.70;;;;;;;;;;5115325;28;20444;-61
2023/09/28 08:15:45;;;;;;;0.70;0.70;;;;;;;;;;5115583;28;20521;-60
2023/09/28 08:18:13;;;;;;;0.70;0.70;;;;;;;;;;5115737;28;20635;-62
2023/09/28 08:20:40;;;;;;;0.70;0.70;;;;;;;;;;5115567;28;20843;-60
2023/09/28 08:23:07;;;;;;;0.70;0.70;;;;;;;;;;5125600;27;20496;-61
2023/09/28 08:25:35;;;;;;;0.70;0.70;;;;;;;;;;5134582;27;20518;-61
2023/09/28 08:28:02;;;;;;;0.70;0.70;;;;;;;;;;5134551;27;20441;-61
2023/09/28 08:30:29;;;;;;;0.80;0.80;;;;;;;;;;5134964;27;20485;-63
2023/09/28 08:32:58;;;;;;;0.70;0.70;;;;;;;;;;5134851;27;20967;-62
2023/09/28 08:35:25;;;;;;;0.70;0.70;;;;;;;;;;5134409;27;20930;-62
2023/09/28 08:37:52;;;;;;;0.80;0.80;;;;;;;;;;5134948;27;20541;-63
2023/09/28 08:40:20;;;;;;;0.70;0.70;;;;;;;;;;5134758;27;20448;-62
2023/09/28 08:42:48;;;;;;;0.80;0.80;;;;;;;;;;5134810;27;20992;-62
2023/09/28 08:45:15;;;;;;;0.70;0.70;;;;;;;;;;5134946;27;20529;-62
2023/09/28 08:47:46;;;;;;;0.70;0.70;;;;;;;;;;5135193;27;20939;-62
2023/09/28 08:50:17;;;;;;;0.70;0.70;;;;;;;;;;5135299;27;20791;-62
2023/09/28 08:52:44;;;;;;;0.70;0.70;;;;;;;;;;5134744;27;20805;-62
2023/09/28 08:55:12;;;;;;;0.70;0.70;;;;;;;;;;5134643;27;20530;-62
2023/09/28 08:57:39;;;;;;;0.70;0.70;;;;;;;;;;5134837;27;20442;-62
2023/09/28 09:00:13;;;;;;;0.70;0.70;;;;;;;;;;5134980;27;20520;-62
2023/09/28 09:02:41;;;;;;;0.70;0.70;;;;;;;;;;5135302;27;20465;-62
2023/09/28 09:05:10;;;;;;;0.70;0.70;;;;;;;;;;5134890;27;20526;-62
2023/09/28 09:07:39;;;;;;;0.70;0.70;;;;;;;;;;5134817;27;20954;-62
2023/09/28 09:10:07;;;;;;;0.70;0.70;;;;;;;;;;5135029;27;20447;-62
2023/09/28 09:12:35;;;;;;;0.70;0.70;;;;;;;;;;5135084;27;20437;-63
2023/09/28 09:15:03;;;;;;;0.70;0.70;;;;;;;;;;5134533;27;20514;-62
2023/09/28 09:17:33;;;;;;;0.70;0.70;;;;;;;;;;5134449;27;21011;-62
2023/09/28 09:20:01;;;;;;;0.70;0.70;;;;;;;;;;5135004;27;20434;-62
2023/09/28 09:22:29;;;;;;;0.70;0.70;;;;;;;;;;5134653;27;20517;-62
2023/09/28 09:24:58;;;;;;;0.70;0.70;;;;;;;;;;5134069;27;20461;-62
2023/09/28 09:27:29;;;;;;;0.70;0.70;;;;;;;;;;5134976;27;20448;-62
2023/09/28 09:29:58;;;;;;;0.70;0.70;;;;;;;;;;5135206;27;20491;-62
2023/09/28 09:32:26;;;;;;;0.70;0.70;;;;;;;;;;5134630;27;20427;-62
2023/09/28 09:34:54;;;;;;;0.70;0.70;;;;;;;;;;5134132;27;20541;-62
2023/09/28 09:37:21;;;;;;;0.70;0.70;;;;;;;;;;5134222;27;20530;-61
2023/09/28 09:39:48;;;;;;;0.80;0.80;;;;;;;;;;5134118;27;20439;-62
2023/09/28 09:42:26;;;;;;;0.70;0.70;;;;;;;;;;5134309;27;20856;-62
2023/09/28 09:44:53;;;;;;;0.80;0.80;;;;;;;;;;5133944;27;20477;-62
2023/09/28 09:47:21;;;;;;;0.70;0.70;;;;;;;;;;5134286;27;20471;-62
2023/09/28 09:49:49;;;;;;;0.70;0.70;;;;;;;;;;5134469;27;20430;-62
2023/09/28 09:52:20;;;;;;;0.70;0.70;;;;;;;;;;5134041;27;20429;-62
2023/09/28 09:54:48;;;;;;;0.70;0.70;;;;;;;;;;5118836;27;20442;-62
2023/09/28 09:57:17;;;;;;;0.70;0.70;;;;;;;;;;5113499;28;20673;-62
2023/09/28 09:59:47;;;;;;;0.80;0.80;;;;;;;;;;5113409;28;20435;-62
2023/09/28 10:02:18;;;;;;;0.70;0.70;;;;;;;;;;5113797;28;20434;-62
2023/09/28 10:04:45;;;;;;;0.70;0.70;;;;;;;;;;5112758;28;20644;-62
2023/09/28 10:07:12;;;;;;;0.70;0.70;;;;;;;;;;5113214;28;20535;-62
2023/09/28 10:09:41;;;;;;;0.70;0.70;;;;;;;;;;5113491;28;20431;-62
2023/09/28 10:12:09;;;;;;;0.70;0.70;;;;;;;;;;5113730;28;20462;-62
2023/09/28 10:14:38;;;;;;;0.70;0.70;;;;;;;;;;5112688;28;20954;-62
2023/09/28 10:17:05;;;;;;;0.70;0.70;;;;;;;;;;5113110;28;20470;-62
2023/09/28 10:19:33;;;;;;;1.37;1.17;;;;;;;;;;5113031;28;20441;-62
2023/09/28 10:22:01;;;;;;;0.80;0.80;;;;;;;;;;5113327;28;20436;-62
2023/09/28 10:24:30;;;;;;;0.70;0.70;;;;;;;;;;5107476;28;20496;-62
2023/09/28 10:26:57;;;;;;;0.70;0.70;;;;;;;;;;5092642;28;20515;-63
2023/09/28 10:29:28;;;;;;;0.70;0.70;;;;;;;;;;5092608;28;20816;-62
2023/09/28 10:31:58;;;;;;;0.70;0.70;;;;;;;;;;5092235;28;20419;-62
2023/09/28 10:34:27;;;;;;;0.70;0.70;;;;;;;;;;5092414;28;20451;-62
2023/09/28 10:37:18;;;;;;;0.70;0.70;;;;;;;;;;5092500;28;20440;-62
2023/09/28 10:39:45;;;;;;;0.70;0.70;;;;;;;;;;5092409;28;20420;-62
2023/09/28 10:42:13;;;;;;;0.70;0.70;;;;;;;;;;5092438;28;20444;-62
2023/09/28 10:44:47;;;;;;;0.70;0.70;;;;;;;;;;5091693;28;20530;-61
2023/09/28 10:47:15;;;;;;;0.80;0.80;;;;;;;;;;5092791;28;20431;-61
2023/09/28 10:49:43;;;;;;;0.80;0.80;;;;;;;;;;5092596;28;20803;-61
2023/09/28 10:52:11;;;;;;;0.70;0.70;;;;;;;;;;5092658;28;20431;-61
2023/09/28 10:54:38;;;;;;;0.70;0.70;;;;;;;;;;5091937;28;20467;-61
2023/09/28 10:57:05;;;;;;;0.80;0.80;;;;;;;;;;5091992;28;20558;-61
2023/09/28 10:59:33;;;;;;;0.70;0.70;;;;;;;;;;5092322;28;20925;-61
2023/09/28 11:02:02;;;;;;;0.70;0.70;;;;;;;;;;5092462;28;20440;-61
2023/09/28 11:04:31;;;;;;;0.70;0.70;;;;;;;;;;5091390;28;20987;-61
2023/09/28 11:07:00;;;;;;;0.70;0.70;;;;;;;;;;5092302;28;20484;-61
2023/09/28 11:09:31;;;;;;;0.70;0.70;;;;;;;;;;5092052;28;20454;-60
2023/09/28 11:11:58;;;;;;;0.70;0.70;;;;;;;;;;5092077;28;20930;-61
2023/09/28 11:14:26;;;;;;;0.70;0.70;;;;;;;;;;5092127;28;20464;-61
2023/09/28 11:16:53;;;;;;;0.70;0.70;;;;;;;;;;5094818;28;20435;-61
2023/09/28 11:19:22;;;;;;;0.70;0.70;;;;;;;;;;5095876;28;20921;-61
2023/09/28 11:21:52;;;;;;;0.70;0.70;;;;;;;;;;5096067;28;20746;-61
2023/09/28 11:24:20;;;;;;;0.70;0.70;;;;;;;;;;5098914;28;20519;-61
2023/09/28 11:26:47;;;;;;;0.70;0.70;;;;;;;;;;5116430;28;20431;-61
2023/09/28 11:29:15;;;;;;;0.70;0.70;;;;;;;;;;5116463;28;20463;-61
2023/09/28 11:31:50;;;;;;;0.70;0.70;;;;;;;;;;5116497;28;20548;-61
2023/09/28 11:34:28;;;;;;;0.70;0.70;;;;;;;;;;5115929;28;20904;-61
2023/09/28 11:36:58;;;;;;;0.70;0.70;;;;;;;;;;5116094;28;20427;-62
2023/09/28 11:39:26;;;;;;;0.70;0.70;;;;;;;;;;5116582;28;20423;-62
2023/09/28 11:41:57;;;;;;;0.70;0.70;;;;;;;;;;5116106;28;20469;-62
2023/09/28 11:44:26;;;;;;;0.80;0.80;;;;;;;;;;5115770;28;20519;-61
2023/09/28 11:46:53;;;;;;;0.80;0.80;;;;;;;;;;5116157;28;20448;-62
2023/09/28 11:49:22;;;;;;;0.70;0.70;;;;;;;;;;5116279;28;20436;-63
2023/09/28 11:51:49;;;;;;;0.70;0.70;;;;;;;;;;5115930;28;20452;-62
2023/09/28 11:54:18;;;;;;;0.70;0.70;;;;;;;;;;5115811;28;20451;-61
2023/09/28 11:56:45;;;;;;;0.70;0.70;;;;;;;;;;5126368;27;20531;-62
2023/09/28 11:59:15;;;;;;;0.70;0.70;;;;;;;;;;5136397;27;20433;-62
2023/09/28 12:01:42;;;;;;;0.70;0.70;;;;;;;;;;5136704;27;20441;-62
2023/09/28 12:04:09;;;;;;;1.00;0.90;;;;;;;;;;5136014;27;20558;-63
2023/09/28 12:06:37;;;;;;;0.70;0.70;;;;;;;;;;5136669;27;20443;-62
2023/09/28 12:09:05;;;;;;;0.70;0.70;;;;;;;;;;5136435;27;20479;-62
2023/09/28 12:11:34;;;;;;;0.70;0.70;;;;;;;;;;5136775;27;20431;-62
2023/09/28 12:14:01;;;;;;;0.70;0.70;;;;;;;;;;5135748;27;20950;-62
2023/09/28 12:16:29;;;;;;;0.70;0.70;;;;;;;;;;5135539;27;20447;-62
2023/09/28 12:18:56;;;;;;;0.70;0.70;;;;;;;;;;5135162;27;20522;-62
2023/09/28 12:21:23;;;;;;;0.70;0.70;;;;;;;;;;5136228;27;20856;-62
2023/09/28 12:23:50;;;;;;;0.70;0.70;;;;;;;;;;5135100;27;20936;-62
2023/09/28 12:26:18;;;;;;;0.70;0.70;;;;;;;;;;5135655;27;20438;-62
2023/09/28 12:28:46;;;;;;;0.70;0.70;;;;;;;;;;5135762;27;20433;-63
2023/09/28 12:31:14;;;;;;;0.70;0.70;;;;;;;;;;5136016;27;20530;-61
2023/09/28 12:33:41;;;;;;;0.70;0.70;;;;;;;;;;5135947;27;20908;-60
2023/09/28 12:36:09;;;;;;;0.70;0.70;;;;;;;;;;5135955;27;20886;-60
2023/09/28 12:38:36;;;;;;;0.70;0.70;;;;;;;;;;5135539;27;20443;-61
2023/09/28 12:41:05;;;;;;;0.70;0.70;;;;;;;;;;5135581;27;20446;-60
2023/09/28 12:43:32;;;;;;;0.70;0.70;;;;;;;;;;5135928;27;20773;-59
2023/09/28 12:46:02;;;;;;;0.70;0.70;;;;;;;;;;5132959;27;20795;-60
2023/09/28 12:48:29;;;;;;;0.70;0.70;;;;;;;;;;5134756;27;20904;-61
2023/09/28 12:50:57;;;;;;;0.70;0.70;;;;;;;;;;5135147;27;20795;-60
2023/09/28 12:53:26;;;;;;;0.70;0.60;;;;;;;;;;5135087;27;20451;-61
2023/09/28 12:55:54;;;;;;;0.70;0.70;;;;;;;;;;5135034;27;20544;-61
2023/09/28 12:58:21;;;;;;;0.70;0.70;;;;;;;;;;5135149;27;20432;-61
2023/09/28 13:00:49;;;;;;;0.80;0.80;;;;;;;;;;5134964;27;20443;-61
2023/09/28 13:03:18;;;;;;;0.70;0.70;;;;;;;;;;5135493;27;20467;-60
2023/09/28 13:05:45;;;;;;;0.80;0.70;;;;;;;;;;5134696;27;20560;-61
2023/09/28 13:08:13;;;;;;;0.90;0.90;;;;;;;;;;5134606;27;20432;-60
2023/09/28 13:10:40;;;;;;;0.70;0.70;;;;;;;;;;5134543;27;20443;-61
2023/09/28 13:13:08;;;;;;;0.70;0.60;;;;;;;;;;5134971;27;20446;-60
2023/09/28 13:15:35;;;;;;;0.70;0.70;;;;;;;;;;5135051;27;20528;-60
2023/09/28 13:18:07;;;;;;;0.70;0.70;;;;;;;;;;5134792;27;20482;-61
2023/09/28 13:20:36;;;;;;;0.70;0.70;;;;;;;;;;5134810;27;20860;-60
2023/09/28 13:23:05;;;;;;;0.70;0.60;;;;;;;;;;5135047;27;20861;-61
2023/09/28 13:25:33;;;;;;;0.70;0.70;;;;;;;;;;5134380;27;20581;-61
2023/09/28 13:28:00;;;;;;;0.70;0.70;;;;;;;;;;5133427;27;20433;-61
2023/09/28 13:30:29;;;;;;;0.70;0.70;;;;;;;;;;5134031;27;20994;-61
2023/09/28 13:32:56;;;;;;;0.70;0.70;;;;;;;;;;5134836;27;20439;-61
2023/09/28 13:35:24;;;;;;;0.70;0.70;;;;;;;;;;5134278;27;20444;-61
2023/09/28 13:37:53;;;;;;;0.70;0.70;;;;;;;;;;5134940;27;20804;-61
2023/09/28 13:40:28;;;;;;;0.70;0.70;;;;;;;;;;5133395;27;20527;-61
2023/09/28 13:42:57;;;;;;;0.70;0.70;;;;;;;;;;5134284;27;20980;-62
2023/09/28 13:45:25;;;;;;;0.70;0.70;;;;;;;;;;5134089;27;20482;-62
2023/09/28 13:47:52;;;;;;;0.80;0.80;;;;;;;;;;5133791;27;20622;-62
2023/09/28 13:50:19;;;;;;;0.70;0.70;;;;;;;;;;5133724;27;20526;-62
2023/09/28 13:52:46;;;;;;;0.70;0.70;;;;;;;;;;5134547;27;20434;-61
2023/09/28 13:55:16;;;;;;;0.70;0.70;;;;;;;;;;5134264;27;20442;-62
2023/09/28 13:57:44;;;;;;;0.70;0.70;;;;;;;;;;5134461;27;20550;-61
2023/09/28 14:00:16;;;;;;;0.70;0.70;;;;;;;;;;5134493;27;20570;-61
2023/09/28 14:02:44;;;;;;;0.70;0.70;;;;;;;;;;5134512;27;20514;-61
2023/09/28 14:05:11;;;;;;;0.70;0.70;;;;;;;;;;5133983;27;20661;-61
2023/09/28 14:07:38;;;;;;;0.70;0.70;;;;;;;;;;5134206;27;20530;-61
2023/09/28 14:10:07;;;;;;;0.70;0.70;;;;;;;;;;5134168;27;20449;-61
2023/09/28 14:12:35;;;;;;;0.70;0.70;;;;;;;;;;5134232;27;20822;-61
2023/09/28 14:15:04;;;;;;;0.70;0.70;;;;;;;;;;5133770;27;20450;-61
2023/09/28 14:17:33;;;;;;;0.70;0.70;;;;;;;;;;5134185;27;20445;-61
2023/09/28 14:20:00;;;;;;;0.80;0.80;;;;;;;;;;5134310;27;20776;-61
2023/09/28 14:22:27;;;;;;;0.70;0.70;;;;;;;;;;5134277;27;20446;-62
2023/09/28 14:24:55;;;;;;;0.70;0.70;;;;;;;;;;5133660;27;20586;-62
2023/09/28 14:27:22;;;;;;;0.70;0.70;;;;;;;;;;5133696;27;20927;-61
2023/09/28 14:29:51;;;;;;;0.70;0.70;;;;;;;;;;5133706;27;20951;-62
2023/09/28 14:32:18;;;;;;;0.70;0.70;;;;;;;;;;5131479;27;20437;-62
2023/09/28 14:34:45;;;;;;;0.80;0.80;;;;;;;;;;5112212;28;20451;-62
2023/09/28 14:37:12;;;;;;;0.70;0.70;;;;;;;;;;5112512;28;20876;-61
2023/09/28 14:39:40;;;;;;;0.70;0.70;;;;;;;;;;5113539;28;20427;-61
2023/09/28 14:42:07;;;;;;;0.70;0.70;;;;;;;;;;5113154;28;20436;-61
2023/09/28 14:44:34;;;;;;;0.70;0.70;;;;;;;;;;5112767;28;20581;-61
2023/09/28 14:47:02;;;;;;;0.70;0.70;;;;;;;;;;5113125;28;20528;-61